createdAt,value
2023-12-03T00:02:32.815Z,9.80
2023-12-03T00:05:14.174Z,10.70
2023-12-03T00:07:54.025Z,8.80
2023-12-03T00:10:33.928Z,9.10
2023-12-03T00:13:13.641Z,10.20
2023-12-03T00:15:53.526Z,10.25
2023-12-03T00:18:33.736Z,10.43
2023-12-03T00:21:13.363Z,8.82
2023-12-03T00:23:53.951Z,10.02
2023-12-03T00:26:33.768Z,9.88
2023-12-03T00:29:14.200Z,10.25
2023-12-03T00:31:54.391Z,8.77
2023-12-03T00:34:35.055Z,10.85
2023-12-03T00:37:14.610Z,9.43
2023-12-03T00:39:54.875Z,8.55
2023-12-03T00:42:34.704Z,9.55
2023-12-03T00:45:14.852Z,9.82
2023-12-03T00:47:55.047Z,9.80
2023-12-03T00:50:34.757Z,9.10
2023-12-03T00:53:14.940Z,9.23
2023-12-03T00:55:55.860Z,10.95
2023-12-03T00:58:35.938Z,10.07
2023-12-03T01:01:16.073Z,9.93
2023-12-03T01:03:55.635Z,11.63
2023-12-03T01:06:35.892Z,9.50
2023-12-03T01:09:15.346Z,8.32
2023-12-03T01:11:57.713Z,9.05
2023-12-03T01:14:37.824Z,10.20
2023-12-03T01:17:17.547Z,9.25
2023-12-03T01:20:00.389Z,11.68
2023-12-03T01:22:40.517Z,9.98
2023-12-03T01:25:20.651Z,9.45
2023-12-03T01:28:00.587Z,10.77
2023-12-03T01:30:40.763Z,10.80
2023-12-03T01:33:21.083Z,11.13
2023-12-03T01:36:01.009Z,9.13
2023-12-03T01:38:41.376Z,11.48
2023-12-03T01:41:22.197Z,10.25
2023-12-03T01:44:01.999Z,9.35
2023-12-03T01:46:41.647Z,10.20
2023-12-03T01:49:22.991Z,10.35
2023-12-03T01:52:04.293Z,11.10
2023-12-03T01:54:47.138Z,11.23
2023-12-03T01:57:31.565Z,10.77
2023-12-03T02:00:12.334Z,12.10
2023-12-03T02:02:52.525Z,10.73
2023-12-03T02:05:32.234Z,10.35
2023-12-03T02:08:11.742Z,9.80
2023-12-03T02:10:51.950Z,10.00
2023-12-03T02:13:34.477Z,12.00
2023-12-03T02:16:14.045Z,11.55
2023-12-03T02:18:58.594Z,10.50
2023-12-03T02:21:38.091Z,10.57
2023-12-03T02:24:19.100Z,10.63
2023-12-03T02:27:00.684Z,12.02
2023-12-03T02:29:42.477Z,11.63
2023-12-03T02:32:22.228Z,10.98
2023-12-03T02:35:01.899Z,10.90
2023-12-03T02:37:41.644Z,11.50
2023-12-03T02:40:21.493Z,10.50
2023-12-03T02:43:01.892Z,9.30
2023-12-03T02:45:42.057Z,9.98
2023-12-03T02:48:21.904Z,11.10
2023-12-03T02:51:01.446Z,10.75
2023-12-03T02:53:47.929Z,13.13
2023-12-03T02:56:30.867Z,10.45
2023-12-03T02:59:10.918Z,11.25
2023-12-03T03:01:50.552Z,12.18
2023-12-03T03:04:34.786Z,12.70
2023-12-03T03:07:13.772Z,10.68
2023-12-03T03:09:53.916Z,13.35
2023-12-03T03:12:34.037Z,11.60
2023-12-03T03:15:13.814Z,12.02
2023-12-03T03:17:53.882Z,10.10
2023-12-03T03:20:33.975Z,11.35
2023-12-03T03:23:13.682Z,10.80
2023-12-03T03:25:53.857Z,10.13
2023-12-03T03:28:35.912Z,11.45
2023-12-03T03:31:18.009Z,9.88
2023-12-03T03:34:01.325Z,10.55
2023-12-03T03:39:23.113Z,11.65
2023-12-03T03:42:02.877Z,11.90
2023-12-03T03:44:42.372Z,9.80
2023-12-03T03:47:22.672Z,10.10
2023-12-03T03:50:02.939Z,12.13
2023-12-03T03:52:43.068Z,11.82
2023-12-03T03:55:22.673Z,13.38
2023-12-03T03:58:02.282Z,13.65
2023-12-03T04:00:41.976Z,12.75
2023-12-03T04:06:09.967Z,12.70
2023-12-03T04:08:50.184Z,13.02
2023-12-03T04:11:29.817Z,12.65
2023-12-03T04:14:10.997Z,14.82
2023-12-03T04:16:53.322Z,12.48
2023-12-03T04:19:35.511Z,11.43
2023-12-03T04:22:16.083Z,12.02
2023-12-03T04:24:55.736Z,10.30
2023-12-03T04:27:35.323Z,12.73
2023-12-03T04:30:15.098Z,12.50
2023-12-03T04:32:54.761Z,12.35
2023-12-03T04:35:34.869Z,10.20
2023-12-03T04:40:54.808Z,12.75
2023-12-03T04:43:34.464Z,12.20
2023-12-03T04:46:15.533Z,11.60
2023-12-03T04:48:55.220Z,12.10
2023-12-03T04:51:35.040Z,11.55
2023-12-03T04:54:14.883Z,12.18
2023-12-03T04:56:55.148Z,12.18
2023-12-03T04:59:34.753Z,9.98
2023-12-03T05:02:18.853Z,10.48
2023-12-03T05:04:58.472Z,9.80
2023-12-03T05:07:38.168Z,9.90
2023-12-03T05:10:20.207Z,10.90
2023-12-03T05:12:59.850Z,9.65
2023-12-03T05:15:40.014Z,9.45
2023-12-03T05:18:19.738Z,9.60
2023-12-03T05:21:00.592Z,10.45
2023-12-03T05:23:45.141Z,10.07
2023-12-03T05:29:03.505Z,7.68
2023-12-03T05:31:47.477Z,9.55
2023-12-03T05:34:28.167Z,8.98
2023-12-03T05:37:07.980Z,9.48
2023-12-03T05:39:48.088Z,9.05
2023-12-03T05:42:28.160Z,8.32
2023-12-03T05:45:09.193Z,9.13
2023-12-03T05:47:51.648Z,10.02
2023-12-03T05:50:32.085Z,8.85
2023-12-03T05:53:11.738Z,8.30
2023-12-03T05:55:51.832Z,10.85
2023-12-03T05:58:32.063Z,8.20
2023-12-03T06:01:11.755Z,10.48
2023-12-03T06:03:52.618Z,10.95
2023-12-03T06:06:32.548Z,8.48
2023-12-03T06:09:13.122Z,7.15
2023-12-03T06:11:52.805Z,10.45
2023-12-03T06:14:34.151Z,9.75
2023-12-03T06:17:12.998Z,8.98
2023-12-03T06:19:52.631Z,7.72
2023-12-03T06:22:34.144Z,9.02
2023-12-03T06:25:12.775Z,11.13
2023-12-03T06:30:33.039Z,8.02
2023-12-03T06:33:14.549Z,10.25
2023-12-03T06:35:55.818Z,8.73
2023-12-03T06:38:36.173Z,8.40
2023-12-03T06:41:17.613Z,9.40
2023-12-03T06:43:56.150Z,11.07
2023-12-03T06:46:43.356Z,11.32
2023-12-03T06:49:21.144Z,8.73
2023-12-03T06:51:59.492Z,9.30
2023-12-03T06:54:42.043Z,9.52
2023-12-03T06:57:21.028Z,10.60
2023-12-03T07:00:00.698Z,12.68
2023-12-03T07:02:43.547Z,12.20
2023-12-03T07:05:24.185Z,10.07
2023-12-03T07:08:03.886Z,10.45
2023-12-03T07:10:43.522Z,10.30
2023-12-03T07:13:24.308Z,8.48
2023-12-03T07:16:02.842Z,9.60
2023-12-03T07:18:45.719Z,9.25
2023-12-03T07:21:26.096Z,8.80
2023-12-03T07:24:09.957Z,8.23
2023-12-03T07:26:50.339Z,10.45
2023-12-03T07:29:29.991Z,8.90
2023-12-03T07:32:09.631Z,8.40
2023-12-03T07:34:49.695Z,9.70
2023-12-03T07:37:30.943Z,10.18
2023-12-03T07:40:11.938Z,9.57
2023-12-03T07:42:51.451Z,9.55
2023-12-03T07:45:32.044Z,10.68
2023-12-03T07:48:10.772Z,9.82
2023-12-03T07:50:50.909Z,11.55
2023-12-03T07:53:31.251Z,9.50
2023-12-03T07:56:11.391Z,11.55
2023-12-03T07:58:52.149Z,10.02
2023-12-03T08:01:32.243Z,9.85
2023-12-03T08:04:11.972Z,10.77
2023-12-03T08:06:52.202Z,9.93
2023-12-03T08:09:31.770Z,10.15
2023-12-03T08:12:16.639Z,10.15
2023-12-03T08:14:57.171Z,11.80
2023-12-03T08:17:36.836Z,11.88
2023-12-03T08:20:16.994Z,11.23
2023-12-03T08:22:57.193Z,10.43
2023-12-03T08:25:36.787Z,10.95
2023-12-03T08:28:16.993Z,11.60
2023-12-03T08:30:57.260Z,10.88
2023-12-03T08:33:37.072Z,9.25
2023-12-03T08:36:21.535Z,11.70
2023-12-03T08:39:04.164Z,8.65
2023-12-03T08:41:43.834Z,12.98
2023-12-03T08:44:24.242Z,11.65
2023-12-03T08:47:05.071Z,9.75
2023-12-03T08:49:47.056Z,12.40
2023-12-03T08:52:27.091Z,8.82
2023-12-03T08:55:08.594Z,9.95
2023-12-03T08:57:48.812Z,11.60
2023-12-03T09:00:28.716Z,9.73
2023-12-03T09:03:08.745Z,12.05
2023-12-03T09:05:51.811Z,12.45
2023-12-03T09:08:32.681Z,10.25
2023-12-03T09:11:13.904Z,9.05
2023-12-03T09:13:54.045Z,11.77
2023-12-03T09:16:34.157Z,10.82
2023-12-03T09:19:13.986Z,10.68
2023-12-03T09:21:54.116Z,11.05
2023-12-03T09:24:34.271Z,10.65
2023-12-03T09:27:13.859Z,10.65
2023-12-03T09:32:34.974Z,11.57
2023-12-03T09:35:14.658Z,9.85
2023-12-03T09:37:54.819Z,11.15
2023-12-03T09:40:38.192Z,10.55
2023-12-03T09:43:20.359Z,10.15
2023-12-03T09:46:02.245Z,8.50
2023-12-03T09:48:46.018Z,8.15
2023-12-03T09:51:25.801Z,10.25
2023-12-03T09:54:13.073Z,8.88
2023-12-03T09:57:01.560Z,8.27
2023-12-03T09:59:50.771Z,7.80
2023-12-03T10:02:32.169Z,8.18
2023-12-03T10:05:12.409Z,8.15
2023-12-03T10:07:52.230Z,8.40
2023-12-03T10:10:33.987Z,10.60
2023-12-03T10:13:15.319Z,8.75
2023-12-03T10:15:55.045Z,9.88
2023-12-03T10:18:33.155Z,8.55
2023-12-03T10:21:17.301Z,9.18
2023-12-03T10:24:04.954Z,10.25
2023-12-03T10:26:57.579Z,7.03
2023-12-03T10:29:41.781Z,8.45
2023-12-03T10:32:23.581Z,7.70
2023-12-03T10:35:03.184Z,7.88
2023-12-03T10:37:43.861Z,6.75
2023-12-03T10:40:24.021Z,7.13
2023-12-03T10:43:03.701Z,8.07
2023-12-03T10:45:43.276Z,8.23
2023-12-03T10:48:25.791Z,7.38
2023-12-03T10:51:15.040Z,9.52
2023-12-03T10:53:56.781Z,7.35
2023-12-03T10:56:37.707Z,6.72
2023-12-03T10:59:24.117Z,7.80
2023-12-03T11:02:12.714Z,7.93
2023-12-03T11:05:10.634Z,6.97
2023-12-03T11:07:52.054Z,5.35
2023-12-03T11:10:33.228Z,7.25
2023-12-03T11:13:13.736Z,6.40
2023-12-03T11:15:55.728Z,6.40
2023-12-03T11:18:44.521Z,8.48
2023-12-03T11:22:20.843Z,6.60
2023-12-03T11:25:26.178Z,7.63
2023-12-03T11:28:06.062Z,6.60
2023-12-03T11:30:46.294Z,7.30
2023-12-03T11:33:32.524Z,7.43
2023-12-03T11:36:13.553Z,6.80
2023-12-03T11:38:54.161Z,7.28
2023-12-03T11:41:41.208Z,6.88
2023-12-03T11:44:23.487Z,7.10
2023-12-03T11:47:13.609Z,5.97
2023-12-03T11:49:54.205Z,4.57
2023-12-03T11:52:34.481Z,5.90
2023-12-03T11:55:22.258Z,6.95
2023-12-03T11:58:03.137Z,6.22
2023-12-03T12:00:43.152Z,7.60
2023-12-03T12:03:22.942Z,7.70
2023-12-03T12:06:02.808Z,6.28
2023-12-03T12:08:42.388Z,6.07
2023-12-03T12:11:22.187Z,4.63
2023-12-03T12:14:02.215Z,5.78
2023-12-03T12:16:42.005Z,7.07
2023-12-03T12:19:21.830Z,6.68
2023-12-03T12:22:01.317Z,7.07
2023-12-03T12:24:48.210Z,7.47
2023-12-03T12:27:28.000Z,6.75
2023-12-03T12:30:18.067Z,7.55
2023-12-03T12:32:53.360Z,6.57
2023-12-03T12:35:34.828Z,6.22
2023-12-03T12:38:14.032Z,6.57
2023-12-03T12:40:57.972Z,6.85
2023-12-03T12:43:52.974Z,5.50
2023-12-03T12:46:34.102Z,7.30
2023-12-03T12:49:20.225Z,6.25
2023-12-03T12:52:15.666Z,7.20
2023-12-03T12:55:01.170Z,5.38
2023-12-03T12:57:36.251Z,7.47
2023-12-03T13:00:16.172Z,6.68
2023-12-03T13:02:57.179Z,7.70
2023-12-03T13:05:37.340Z,6.00
2023-12-03T13:08:16.972Z,7.05
2023-12-03T13:10:56.765Z,6.85
2023-12-03T13:13:36.384Z,6.18
2023-12-03T13:16:16.641Z,7.18
2023-12-03T13:18:56.130Z,7.00
2023-12-03T13:21:36.323Z,6.82
2023-12-03T13:24:23.336Z,5.78
2023-12-03T13:26:56.807Z,5.88
2023-12-03T13:29:36.418Z,6.18
2023-12-03T13:32:16.046Z,5.93
2023-12-03T13:34:55.765Z,6.53
2023-12-03T13:37:39.453Z,7.45
2023-12-03T13:40:17.319Z,6.57
2023-12-03T13:42:57.236Z,6.35
2023-12-03T13:45:42.215Z,7.57
2023-12-03T13:48:25.482Z,6.47
2023-12-03T13:53:45.107Z,6.07
2023-12-03T13:56:24.844Z,6.32
2023-12-03T13:59:05.085Z,6.32
2023-12-03T14:01:44.781Z,5.93
2023-12-03T14:04:24.601Z,5.80
2023-12-03T14:07:04.413Z,5.32
2023-12-03T14:09:44.951Z,6.75
2023-12-03T14:12:24.725Z,4.63
2023-12-03T14:15:04.676Z,6.45
2023-12-03T14:17:45.409Z,6.43
2023-12-03T14:20:25.044Z,6.78
2023-12-03T14:23:05.201Z,4.93
2023-12-03T14:25:44.839Z,5.63
2023-12-03T14:28:24.998Z,5.15
2023-12-03T14:31:05.767Z,6.00
2023-12-03T14:33:46.939Z,4.78
2023-12-03T14:36:27.480Z,5.53
2023-12-03T14:39:10.373Z,5.60
2023-12-03T14:41:50.353Z,6.25
2023-12-03T14:44:30.005Z,4.97
2023-12-03T14:47:10.075Z,6.07
2023-12-03T14:49:49.619Z,5.30
2023-12-03T14:52:29.712Z,6.53
2023-12-03T14:55:11.403Z,5.95
2023-12-03T14:57:52.579Z,5.95
2023-12-03T15:00:37.397Z,6.05
2023-12-03T15:03:17.094Z,5.93
2023-12-03T15:05:59.099Z,6.53
2023-12-03T15:08:38.970Z,5.28
2023-12-03T15:11:19.798Z,5.45
2023-12-03T15:13:59.608Z,5.30
2023-12-03T15:16:40.100Z,5.50
2023-12-03T15:19:20.406Z,6.22
2023-12-03T15:22:00.236Z,6.25
2023-12-03T15:24:40.256Z,5.00
2023-12-03T15:27:22.405Z,5.53
2023-12-03T15:30:02.326Z,5.32
2023-12-03T15:32:42.375Z,7.88
2023-12-03T15:35:22.385Z,8.07
2023-12-03T15:38:01.971Z,7.53
2023-12-03T15:40:41.546Z,5.10
2023-12-03T15:43:29.895Z,5.88
2023-12-03T15:46:05.565Z,6.78
2023-12-03T15:48:45.163Z,7.57
2023-12-03T15:51:25.538Z,6.32
2023-12-03T15:54:05.218Z,6.05
2023-12-03T15:56:45.285Z,6.95
2023-12-03T15:59:24.806Z,6.18
2023-12-03T16:02:06.006Z,5.15
2023-12-03T16:04:47.085Z,6.68
2023-12-03T16:07:27.050Z,6.93
2023-12-03T16:10:07.940Z,8.10
2023-12-03T16:12:48.788Z,6.47
2023-12-03T16:15:28.297Z,5.82
2023-12-03T16:18:08.575Z,6.68
2023-12-03T16:20:48.150Z,5.25
2023-12-03T16:23:27.813Z,9.60
2023-12-03T16:26:07.954Z,8.20
2023-12-03T16:28:47.756Z,7.30
2023-12-03T16:31:27.500Z,7.70
2023-12-03T16:34:07.191Z,7.47
2023-12-03T16:36:47.286Z,7.22
2023-12-03T16:39:29.635Z,7.20
2023-12-03T16:42:09.868Z,5.40
2023-12-03T16:44:52.276Z,7.00
2023-12-03T16:47:32.717Z,6.03
2023-12-03T16:50:12.867Z,5.32
2023-12-03T16:52:53.450Z,5.45
2023-12-03T16:55:33.492Z,7.30
2023-12-03T16:58:13.186Z,6.80
2023-12-03T17:00:53.240Z,6.30
2023-12-03T17:03:35.273Z,5.85
2023-12-03T17:06:17.409Z,6.45
2023-12-03T17:08:58.923Z,5.63
2023-12-03T17:11:45.313Z,6.15
2023-12-03T17:17:07.927Z,7.57
2023-12-03T17:19:48.582Z,6.10
2023-12-03T17:22:28.208Z,5.57
2023-12-03T17:25:08.248Z,8.05
2023-12-03T17:27:48.550Z,7.18
2023-12-03T17:30:28.252Z,5.82
2023-12-03T17:33:09.797Z,6.85
2023-12-03T17:35:51.800Z,6.80
2023-12-03T17:38:31.418Z,4.55
2023-12-03T17:41:10.962Z,5.88
2023-12-03T17:46:33.441Z,6.22
2023-12-03T17:49:15.352Z,4.85
2023-12-03T17:51:54.918Z,6.28
2023-12-03T17:54:36.578Z,5.70
2023-12-03T17:57:16.404Z,6.25
2023-12-03T17:59:56.062Z,7.25
2023-12-03T18:02:35.822Z,6.68
2023-12-03T18:05:16.522Z,6.82
2023-12-03T18:07:56.126Z,7.78
2023-12-03T18:10:36.088Z,6.57
2023-12-03T18:13:17.727Z,5.75
2023-12-03T18:15:57.797Z,3.97
2023-12-03T18:18:37.895Z,4.07
2023-12-03T18:21:20.328Z,4.28
2023-12-03T18:24:00.462Z,5.43
2023-12-03T18:26:40.503Z,5.95
2023-12-03T18:29:20.387Z,4.90
2023-12-03T18:31:59.968Z,5.78
2023-12-03T18:34:43.140Z,7.28
2023-12-03T18:37:23.288Z,6.70
2023-12-03T18:40:10.549Z,5.55
2023-12-03T18:42:50.199Z,6.20
2023-12-03T18:45:30.394Z,5.78
2023-12-03T18:48:10.660Z,6.00
2023-12-03T18:50:54.059Z,6.05
2023-12-03T18:53:37.333Z,7.53
2023-12-03T18:56:17.720Z,8.65
2023-12-03T18:58:57.229Z,5.28
2023-12-03T19:01:37.658Z,6.63
2023-12-03T19:04:16.781Z,6.47
2023-12-03T19:06:56.589Z,4.95
2023-12-03T19:09:36.815Z,5.97
2023-12-03T19:12:16.454Z,6.60
2023-12-03T19:14:56.280Z,5.38
2023-12-03T19:17:36.519Z,6.28
2023-12-03T19:20:16.189Z,3.13
2023-12-03T19:23:05.615Z,5.50
2023-12-03T19:25:45.171Z,5.25
2023-12-03T19:28:27.893Z,6.28
2023-12-03T19:31:06.434Z,5.93
2023-12-03T19:33:46.600Z,5.03
2023-12-03T19:36:26.372Z,5.55
2023-12-03T19:39:09.564Z,4.78
2023-12-03T19:41:49.221Z,7.15
2023-12-03T19:44:28.864Z,4.32
2023-12-03T19:47:09.188Z,4.07
2023-12-03T19:49:49.355Z,7.90
2023-12-03T19:52:29.020Z,4.97
2023-12-03T19:55:09.717Z,5.55
2023-12-03T19:57:51.474Z,4.25
2023-12-03T20:00:31.650Z,6.03
2023-12-03T20:03:11.131Z,5.53
2023-12-03T20:05:51.238Z,8.02
2023-12-03T20:08:31.219Z,6.07
2023-12-03T20:11:11.572Z,6.20
2023-12-03T20:13:51.157Z,5.45
2023-12-03T20:16:31.105Z,7.15
2023-12-03T20:19:11.244Z,5.15
2023-12-03T20:21:50.864Z,5.70
2023-12-03T20:24:31.488Z,4.30
2023-12-03T20:27:09.283Z,5.90
2023-12-03T20:29:49.210Z,6.22
2023-12-03T20:32:28.463Z,5.05
2023-12-03T20:35:12.044Z,8.57
2023-12-03T20:37:52.141Z,3.53
2023-12-03T20:43:15.381Z,5.95
2023-12-03T20:45:54.995Z,6.43
2023-12-03T20:48:35.470Z,5.38
2023-12-03T20:51:16.041Z,6.20
2023-12-03T20:53:56.996Z,4.70
2023-12-03T20:56:35.467Z,3.80
2023-12-03T20:59:16.335Z,3.72
2023-12-03T21:01:55.815Z,4.75
2023-12-03T21:04:35.815Z,5.03
2023-12-03T21:07:15.460Z,4.03
2023-12-03T21:09:55.566Z,3.80
2023-12-03T21:12:36.818Z,4.38
2023-12-03T21:15:16.879Z,3.72
2023-12-03T21:17:57.702Z,5.78
2023-12-03T21:20:37.618Z,5.03
2023-12-03T21:23:17.429Z,4.85
2023-12-03T21:25:59.189Z,7.32
2023-12-03T21:28:38.981Z,6.07
2023-12-03T21:31:18.732Z,5.40
2023-12-03T21:34:00.971Z,4.65
2023-12-03T21:36:40.579Z,5.10
2023-12-03T21:39:22.564Z,6.07
2023-12-03T21:42:02.288Z,6.43
2023-12-03T21:44:41.980Z,4.55
2023-12-03T21:47:22.106Z,6.05
2023-12-03T21:50:01.772Z,5.18
2023-12-03T21:52:43.403Z,5.90
2023-12-03T21:55:23.139Z,6.03
2023-12-03T21:58:03.557Z,4.95
2023-12-03T22:00:44.295Z,6.45
2023-12-03T22:03:24.630Z,6.07
2023-12-03T22:06:04.428Z,5.40
2023-12-03T22:08:44.511Z,5.63
2023-12-03T22:11:24.417Z,7.72
2023-12-03T22:14:04.104Z,4.53
2023-12-03T22:16:43.861Z,7.97
2023-12-03T22:19:23.595Z,7.40
2023-12-03T22:22:03.356Z,5.28
2023-12-03T22:24:42.791Z,6.47
2023-12-03T22:27:22.846Z,5.15
2023-12-03T22:30:11.297Z,6.22
2023-12-03T22:32:43.656Z,5.75
2023-12-03T22:35:23.258Z,6.40
2023-12-03T22:38:03.445Z,8.20
2023-12-03T22:40:43.308Z,7.35
2023-12-03T22:43:23.374Z,6.55
2023-12-03T22:46:03.074Z,6.63
2023-12-03T22:48:46.306Z,7.05
2023-12-03T22:54:05.513Z,5.22
2023-12-03T22:56:45.710Z,5.82
2023-12-03T22:59:32.350Z,7.20
2023-12-03T23:02:12.707Z,6.35
2023-12-03T23:04:59.462Z,6.45
2023-12-03T23:07:39.172Z,6.80
2023-12-03T23:10:19.030Z,7.50
2023-12-03T23:12:58.776Z,6.57
2023-12-03T23:15:38.789Z,8.50
2023-12-03T23:21:01.211Z,7.47
2023-12-03T23:23:40.771Z,7.50
2023-12-03T23:26:20.424Z,7.05
2023-12-03T23:29:00.042Z,7.10
2023-12-03T23:31:39.698Z,6.60
2023-12-03T23:34:24.592Z,6.22
2023-12-03T23:37:06.224Z,5.85
2023-12-03T23:39:45.833Z,7.25
2023-12-03T23:42:25.618Z,6.28
2023-12-03T23:45:06.131Z,8.30
2023-12-03T23:47:44.620Z,7.63
2023-12-03T23:50:24.832Z,7.43
2023-12-03T23:53:04.054Z,7.80
2023-12-03T23:55:42.602Z,7.32
2023-12-03T23:58:21.751Z,8.65
